Ages, Kentucky
Current Conditions -  °F | °C
As of 1:15 PM on Thursday 18 Dec 2014 (Local Time) from KI35 Reporting Station
Broken Clouds Broken Clouds  
Wind Chill: 41°   Ceiling: 7500
Heat Index: 41°   Visibility: 10mi
Dew Point: 27°   Wind: 0mph
Humidity: 57%   Direction: NA
Pressure: 30.14"   Gusts: NA
Location:  36.8576°N, 83.2467°W
Report Text: KI35 181815Z AUTO 00000KT 10SM BKN075 05/M03 A3014 RMK AO1
Loading
Personal Weather Stations






























Interactive Weather Map New forecast layout! Learn more

10-Day Weather Forecast

Advertisements
Track Severe Weather on mobile